aviador You're here:

GQPP Decoded Metar

NOUADHIBOU in MAURITANIA
Report Time2017-08-22 09:00:00
UTC Time2017-08-22 09:08:39
Flight Rules ifr IFR
Wind350° at 09 kt
W.Decomp.*RWY 02: 8.2 kt HW 3.7 kt LCW
W.Rank350° ranks 3
Current wind is below 350° avg. (13.8)
Visibility2000 m
Phenomena:Mist
Clouds:Broken 006 Hf
Expected CloudBase > 400 ft AGL from Temp-Dew spread
Ceiling600 ft
Temp22°C (ISA +7)
Dew Point21°C (94% RH)
QNH1014 hPa
Density Alt1,122 ft
Elevation10 ft
Report Wrong Elevation
Raw Report
METAR GQPP 220900Z 35009KT 2000 BR BKN006 22/21 Q1014 TEMPO 4000=####018001527####
SAEU KAWN 220900 RRK

Extra information for GQPP:More info

Metar Taf Metar & Taf Last 4 Metars F.Rules Stats Wind Profile Meteogram Temp Stats Airport Information Weather charts Add Link Nearby VenuesMetar ALERT Operation Metar Decoded Social comments